sensor_id;sensor_type;location;lat;lon;timestamp;P1;durP1;ratioP1;P2;durP2;ratioP2
55537;SDS011;41383;51.418;7.286;2022-07-21T00:00:14;16.63;;;11.88;;
55537;SDS011;41383;51.418;7.286;2022-07-21T00:02:40;21.63;;;11.13;;
55537;SDS011;41383;51.418;7.286;2022-07-21T00:05:05;14.18;;;10.35;;
55537;SDS011;41383;51.418;7.286;2022-07-21T00:07:31;16.88;;;11.70;;
55537;SDS011;41383;51.418;7.286;2022-07-21T00:09:56;17.30;;;11.27;;
55537;SDS011;41383;51.418;7.286;2022-07-21T00:12:21;14.93;;;10.40;;
55537;SDS011;41383;51.418;7.286;2022-07-21T00:14:47;18.65;;;11.60;;
55537;SDS011;41383;51.418;7.286;2022-07-21T00:17:12;18.50;;;12.20;;
55537;SDS011;41383;51.418;7.286;2022-07-21T00:19:37;16.88;;;9.35;;
55537;SDS011;41383;51.418;7.286;2022-07-21T00:22:03;20.90;;;11.57;;
55537;SDS011;41383;51.418;7.286;2022-07-21T00:24:28;15.00;;;10.75;;
55537;SDS011;41383;51.418;7.286;2022-07-21T00:26:53;16.03;;;10.90;;
55537;SDS011;41383;51.418;7.286;2022-07-21T00:29:19;26.27;;;11.23;;
55537;SDS011;41383;51.418;7.286;2022-07-21T00:31:44;17.83;;;11.47;;
55537;SDS011;41383;51.418;7.286;2022-07-21T00:34:09;13.87;;;10.20;;
55537;SDS011;41383;51.418;7.286;2022-07-21T00:36:34;15.27;;;11.10;;
55537;SDS011;41383;51.418;7.286;2022-07-21T00:39:00;13.77;;;10.40;;
55537;SDS011;41383;51.418;7.286;2022-07-21T00:41:25;15.52;;;9.90;;
55537;SDS011;41383;51.418;7.286;2022-07-21T00:43:50;15.70;;;9.73;;
55537;SDS011;41383;51.418;7.286;2022-07-21T00:46:19;15.30;;;9.60;;
55537;SDS011;41383;51.418;7.286;2022-07-21T00:48:45;15.20;;;9.75;;
55537;SDS011;41383;51.418;7.286;2022-07-21T00:51:10;15.37;;;8.77;;
55537;SDS011;41383;51.418;7.286;2022-07-21T00:53:35;12.47;;;8.97;;
55537;SDS011;41383;51.418;7.286;2022-07-21T00:56:01;13.85;;;9.98;;
55537;SDS011;41383;51.418;7.286;2022-07-21T00:58:26;18.55;;;11.00;;
55537;SDS011;41383;51.418;7.286;2022-07-21T01:00:52;15.52;;;9.45;;
55537;SDS011;41383;51.418;7.286;2022-07-21T01:03:17;12.98;;;8.77;;
55537;SDS011;41383;51.418;7.286;2022-07-21T01:05:42;13.30;;;8.45;;
55537;SDS011;41383;51.418;7.286;2022-07-21T01:08:08;13.18;;;10.07;;
55537;SDS011;41383;51.418;7.286;2022-07-21T01:10:33;15.32;;;8.57;;
55537;SDS011;41383;51.418;7.286;2022-07-21T01:12:59;13.10;;;8.82;;
55537;SDS011;41383;51.418;7.286;2022-07-21T01:15:25;19.35;;;8.63;;
55537;SDS011;41383;51.418;7.286;2022-07-21T01:17:51;12.05;;;8.02;;
55537;SDS011;41383;51.418;7.286;2022-07-21T01:20:19;14.10;;;8.02;;
55537;SDS011;41383;51.418;7.286;2022-07-21T01:22:47;21.58;;;9.38;;
55537;SDS011;41383;51.418;7.286;2022-07-21T01:25:14;11.90;;;8.50;;
55537;SDS011;41383;51.418;7.286;2022-07-21T01:27:41;13.68;;;8.63;;
55537;SDS011;41383;51.418;7.286;2022-07-21T01:30:06;15.95;;;9.45;;
55537;SDS011;41383;51.418;7.286;2022-07-21T01:32:34;13.98;;;8.43;;
55537;SDS011;41383;51.418;7.286;2022-07-21T01:35:00;15.35;;;9.02;;
55537;SDS011;41383;51.418;7.286;2022-07-21T01:37:27;12.23;;;8.73;;
55537;SDS011;41383;51.418;7.286;2022-07-21T01:39:54;15.40;;;9.80;;
55537;SDS011;41383;51.418;7.286;2022-07-21T01:42:38;11.23;;;8.15;;
55537;SDS011;41383;51.418;7.286;2022-07-21T01:45:03;16.13;;;9.60;;
55537;SDS011;41383;51.418;7.286;2022-07-21T01:47:30;21.77;;;9.50;;
55537;SDS011;41383;51.418;7.286;2022-07-21T01:49:56;13.95;;;8.70;;
55537;SDS011;41383;51.418;7.286;2022-07-21T01:52:21;11.88;;;8.07;;
55537;SDS011;41383;51.418;7.286;2022-07-21T01:54:46;15.77;;;9.50;;
55537;SDS011;41383;51.418;7.286;2022-07-21T01:57:12;12.93;;;8.70;;
55537;SDS011;41383;51.418;7.286;2022-07-21T01:59:37;12.68;;;7.95;;
55537;SDS011;41383;51.418;7.286;2022-07-21T02:02:03;12.32;;;6.50;;
55537;SDS011;41383;51.418;7.286;2022-07-21T02:04:28;11.30;;;7.25;;
55537;SDS011;41383;51.418;7.286;2022-07-21T02:06:53;13.75;;;9.02;;
55537;SDS011;41383;51.418;7.286;2022-07-21T02:09:19;14.75;;;8.88;;
55537;SDS011;41383;51.418;7.286;2022-07-21T02:11:44;9.80;;;6.38;;
55537;SDS011;41383;51.418;7.286;2022-07-21T02:14:10;10.40;;;6.20;;
55537;SDS011;41383;51.418;7.286;2022-07-21T02:16:35;9.43;;;6.43;;
55537;SDS011;41383;51.418;7.286;2022-07-21T02:19:00;11.20;;;7.60;;
55537;SDS011;41383;51.418;7.286;2022-07-21T02:21:25;13.27;;;7.63;;
55537;SDS011;41383;51.418;7.286;2022-07-21T02:23:51;17.35;;;6.65;;
55537;SDS011;41383;51.418;7.286;2022-07-21T02:26:16;11.43;;;7.07;;
55537;SDS011;41383;51.418;7.286;2022-07-21T02:28:42;11.93;;;6.50;;
55537;SDS011;41383;51.418;7.286;2022-07-21T02:31:07;11.63;;;7.75;;
55537;SDS011;41383;51.418;7.286;2022-07-21T02:33:32;13.27;;;8.40;;
55537;SDS011;41383;51.418;7.286;2022-07-21T02:35:58;12.25;;;7.88;;
55537;SDS011;41383;51.418;7.286;2022-07-21T02:38:23;15.48;;;8.18;;
55537;SDS011;41383;51.418;7.286;2022-07-21T02:40:49;12.43;;;7.78;;
55537;SDS011;41383;51.418;7.286;2022-07-21T02:43:14;11.70;;;6.77;;
55537;SDS011;41383;51.418;7.286;2022-07-21T02:45:39;14.65;;;7.25;;
55537;SDS011;41383;51.418;7.286;2022-07-21T02:48:08;12.93;;;7.57;;
55537;SDS011;41383;51.418;7.286;2022-07-21T02:50:35;19.02;;;6.13;;
55537;SDS011;41383;51.418;7.286;2022-07-21T02:53:03;10.77;;;6.03;;
55537;SDS011;41383;51.418;7.286;2022-07-21T02:55:30;12.60;;;6.40;;
55537;SDS011;41383;51.418;7.286;2022-07-21T02:58:14;11.63;;;6.85;;
55537;SDS011;41383;51.418;7.286;2022-07-21T03:00:42;11.77;;;6.28;;
55537;SDS011;41383;51.418;7.286;2022-07-21T03:03:15;9.00;;;5.38;;
55537;SDS011;41383;51.418;7.286;2022-07-21T03:05:40;14.55;;;7.00;;
55537;SDS011;41383;51.418;7.286;2022-07-21T03:08:06;9.18;;;5.32;;
55537;SDS011;41383;51.418;7.286;2022-07-21T03:10:32;9.30;;;5.72;;
55537;SDS011;41383;51.418;7.286;2022-07-21T03:12:58;10.30;;;7.07;;
55537;SDS011;41383;51.418;7.286;2022-07-21T03:15:23;11.65;;;6.55;;
55537;SDS011;41383;51.418;7.286;2022-07-21T03:17:50;12.98;;;7.30;;
55537;SDS011;41383;51.418;7.286;2022-07-21T03:20:16;11.25;;;6.00;;
55537;SDS011;41383;51.418;7.286;2022-07-21T03:22:41;9.55;;;5.70;;
55537;SDS011;41383;51.418;7.286;2022-07-21T03:25:06;10.50;;;6.17;;
55537;SDS011;41383;51.418;7.286;2022-07-21T03:27:32;11.20;;;7.18;;
55537;SDS011;41383;51.418;7.286;2022-07-21T03:30:02;9.68;;;6.00;;
55537;SDS011;41383;51.418;7.286;2022-07-21T03:32:31;11.23;;;6.82;;
55537;SDS011;41383;51.418;7.286;2022-07-21T03:34:57;11.30;;;7.28;;
55537;SDS011;41383;51.418;7.286;2022-07-21T03:37:22;11.70;;;8.18;;
55537;SDS011;41383;51.418;7.286;2022-07-21T03:39:47;12.77;;;7.70;;
55537;SDS011;41383;51.418;7.286;2022-07-21T03:42:13;16.02;;;7.25;;
55537;SDS011;41383;51.418;7.286;2022-07-21T03:44:38;12.50;;;5.47;;
55537;SDS011;41383;51.418;7.286;2022-07-21T03:47:03;13.13;;;7.07;;
55537;SDS011;41383;51.418;7.286;2022-07-21T03:49:29;14.07;;;6.60;;
55537;SDS011;41383;51.418;7.286;2022-07-21T03:51:54;11.93;;;6.23;;
55537;SDS011;41383;51.418;7.286;2022-07-21T03:54:19;10.83;;;7.00;;
55537;SDS011;41383;51.418;7.286;2022-07-21T03:56:44;10.20;;;5.25;;
55537;SDS011;41383;51.418;7.286;2022-07-21T03:59:10;10.50;;;6.07;;
55537;SDS011;41383;51.418;7.286;2022-07-21T04:01:35;14.97;;;6.10;;
55537;SDS011;41383;51.418;7.286;2022-07-21T04:04:00;9.77;;;5.23;;
55537;SDS011;41383;51.418;7.286;2022-07-21T04:06:25;11.43;;;6.33;;
55537;SDS011;41383;51.418;7.286;2022-07-21T04:08:51;8.87;;;5.70;;
55537;SDS011;41383;51.418;7.286;2022-07-21T04:11:16;10.45;;;6.13;;
55537;SDS011;41383;51.418;7.286;2022-07-21T04:13:41;12.10;;;6.70;;
55537;SDS011;41383;51.418;7.286;2022-07-21T04:16:07;11.43;;;6.88;;
55537;SDS011;41383;51.418;7.286;2022-07-21T04:18:32;10.83;;;6.53;;
55537;SDS011;41383;51.418;7.286;2022-07-21T04:20:57;10.35;;;6.75;;
55537;SDS011;41383;51.418;7.286;2022-07-21T04:23:22;11.52;;;6.63;;
55537;SDS011;41383;51.418;7.286;2022-07-21T04:25:48;9.27;;;6.15;;
55537;SDS011;41383;51.418;7.286;2022-07-21T04:28:13;9.70;;;6.65;;
55537;SDS011;41383;51.418;7.286;2022-07-21T04:30:38;10.55;;;6.88;;
55537;SDS011;41383;51.418;7.286;2022-07-21T04:33:04;10.55;;;6.22;;
55537;SDS011;41383;51.418;7.286;2022-07-21T04:35:31;10.95;;;6.68;;
55537;SDS011;41383;51.418;7.286;2022-07-21T04:37:56;11.50;;;7.30;;
55537;SDS011;41383;51.418;7.286;2022-07-21T04:40:22;11.97;;;7.03;;
55537;SDS011;41383;51.418;7.286;2022-07-21T04:42:47;14.33;;;9.73;;
55537;SDS011;41383;51.418;7.286;2022-07-21T04:45:13;10.68;;;7.65;;
55537;SDS011;41383;51.418;7.286;2022-07-21T04:47:43;16.95;;;9.90;;
55537;SDS011;41383;51.418;7.286;2022-07-21T04:50:16;14.93;;;10.15;;
55537;SDS011;41383;51.418;7.286;2022-07-21T04:52:42;15.55;;;10.30;;
55537;SDS011;41383;51.418;7.286;2022-07-21T04:55:09;18.40;;;11.02;;
55537;SDS011;41383;51.418;7.286;2022-07-21T04:57:38;15.15;;;10.15;;
55537;SDS011;41383;51.418;7.286;2022-07-21T05:00:06;17.83;;;11.45;;
55537;SDS011;41383;51.418;7.286;2022-07-21T05:02:32;23.88;;;12.00;;
55537;SDS011;41383;51.418;7.286;2022-07-21T05:04:58;18.88;;;10.75;;
55537;SDS011;41383;51.418;7.286;2022-07-21T05:07:23;14.55;;;9.93;;
55537;SDS011;41383;51.418;7.286;2022-07-21T05:09:48;21.27;;;12.13;;
55537;SDS011;41383;51.418;7.286;2022-07-21T05:12:14;23.50;;;11.63;;
55537;SDS011;41383;51.418;7.286;2022-07-21T05:14:39;18.92;;;11.45;;
55537;SDS011;41383;51.418;7.286;2022-07-21T05:17:04;19.23;;;11.85;;
55537;SDS011;41383;51.418;7.286;2022-07-21T05:19:29;16.45;;;12.40;;
55537;SDS011;41383;51.418;7.286;2022-07-21T05:21:55;15.53;;;10.63;;
55537;SDS011;41383;51.418;7.286;2022-07-21T05:24:20;22.30;;;13.83;;
55537;SDS011;41383;51.418;7.286;2022-07-21T05:26:45;16.52;;;11.32;;
55537;SDS011;41383;51.418;7.286;2022-07-21T05:29:11;17.53;;;13.03;;
55537;SDS011;41383;51.418;7.286;2022-07-21T05:31:36;18.37;;;11.77;;
55537;SDS011;41383;51.418;7.286;2022-07-21T05:34:01;17.83;;;12.70;;
55537;SDS011;41383;51.418;7.286;2022-07-21T05:36:26;19.48;;;12.75;;
55537;SDS011;41383;51.418;7.286;2022-07-21T05:38:52;19.70;;;12.93;;
55537;SDS011;41383;51.418;7.286;2022-07-21T05:41:17;16.80;;;11.70;;
55537;SDS011;41383;51.418;7.286;2022-07-21T05:43:42;18.95;;;13.25;;
55537;SDS011;41383;51.418;7.286;2022-07-21T05:46:07;17.77;;;12.50;;
55537;SDS011;41383;51.418;7.286;2022-07-21T05:48:33;18.58;;;11.57;;
55537;SDS011;41383;51.418;7.286;2022-07-21T05:50:58;18.67;;;13.00;;
55537;SDS011;41383;51.418;7.286;2022-07-21T05:53:23;15.97;;;11.47;;
55537;SDS011;41383;51.418;7.286;2022-07-21T05:55:49;18.33;;;12.20;;
55537;SDS011;41383;51.418;7.286;2022-07-21T05:58:14;19.60;;;13.00;;
55537;SDS011;41383;51.418;7.286;2022-07-21T06:00:40;20.77;;;12.43;;
55537;SDS011;41383;51.418;7.286;2022-07-21T06:03:06;18.65;;;12.48;;
55537;SDS011;41383;51.418;7.286;2022-07-21T06:05:31;17.73;;;11.85;;
55537;SDS011;41383;51.418;7.286;2022-07-21T06:07:56;16.75;;;11.80;;
55537;SDS011;41383;51.418;7.286;2022-07-21T06:10:22;14.37;;;11.23;;
55537;SDS011;41383;51.418;7.286;2022-07-21T06:12:47;16.30;;;10.98;;
55537;SDS011;41383;51.418;7.286;2022-07-21T06:15:13;16.20;;;12.10;;
55537;SDS011;41383;51.418;7.286;2022-07-21T06:17:39;19.23;;;12.55;;
55537;SDS011;41383;51.418;7.286;2022-07-21T06:20:07;16.45;;;11.60;;
55537;SDS011;41383;51.418;7.286;2022-07-21T06:22:33;17.38;;;13.35;;
55537;SDS011;41383;51.418;7.286;2022-07-21T06:24:59;15.60;;;11.32;;
55537;SDS011;41383;51.418;7.286;2022-07-21T06:27:24;19.60;;;11.73;;
55537;SDS011;41383;51.418;7.286;2022-07-21T06:29:49;25.43;;;13.07;;
55537;SDS011;41383;51.418;7.286;2022-07-21T06:32:15;17.70;;;12.00;;
55537;SDS011;41383;51.418;7.286;2022-07-21T06:34:40;19.25;;;11.80;;
55537;SDS011;41383;51.418;7.286;2022-07-21T06:37:05;14.00;;;10.67;;
55537;SDS011;41383;51.418;7.286;2022-07-21T06:39:30;17.60;;;12.23;;
55537;SDS011;41383;51.418;7.286;2022-07-21T06:41:56;16.45;;;11.15;;
55537;SDS011;41383;51.418;7.286;2022-07-21T06:44:21;15.30;;;10.93;;
55537;SDS011;41383;51.418;7.286;2022-07-21T06:46:49;19.08;;;12.43;;
55537;SDS011;41383;51.418;7.286;2022-07-21T06:49:15;15.43;;;11.68;;
55537;SDS011;41383;51.418;7.286;2022-07-21T06:51:40;18.47;;;11.53;;
55537;SDS011;41383;51.418;7.286;2022-07-21T06:54:05;20.60;;;11.80;;
55537;SDS011;41383;51.418;7.286;2022-07-21T06:56:31;16.67;;;11.70;;
55537;SDS011;41383;51.418;7.286;2022-07-21T06:58:56;15.95;;;11.63;;
55537;SDS011;41383;51.418;7.286;2022-07-21T07:01:21;16.23;;;12.50;;
55537;SDS011;41383;51.418;7.286;2022-07-21T07:03:47;16.97;;;11.63;;
55537;SDS011;41383;51.418;7.286;2022-07-21T07:06:12;14.98;;;11.35;;
55537;SDS011;41383;51.418;7.286;2022-07-21T07:08:37;17.80;;;11.90;;
55537;SDS011;41383;51.418;7.286;2022-07-21T07:11:04;17.33;;;10.93;;
55537;SDS011;41383;51.418;7.286;2022-07-21T07:13:30;15.80;;;10.50;;
55537;SDS011;41383;51.418;7.286;2022-07-21T07:15:56;16.98;;;10.55;;
55537;SDS011;41383;51.418;7.286;2022-07-21T07:18:21;17.87;;;11.70;;
55537;SDS011;41383;51.418;7.286;2022-07-21T07:20:48;15.05;;;11.52;;
55537;SDS011;41383;51.418;7.286;2022-07-21T07:23:15;18.70;;;11.38;;
55537;SDS011;41383;51.418;7.286;2022-07-21T07:25:40;16.90;;;10.82;;
55537;SDS011;41383;51.418;7.286;2022-07-21T07:28:05;21.88;;;12.13;;
55537;SDS011;41383;51.418;7.286;2022-07-21T07:30:33;19.70;;;13.38;;
55537;SDS011;41383;51.418;7.286;2022-07-21T07:32:59;18.40;;;11.73;;
55537;SDS011;41383;51.418;7.286;2022-07-21T07:35:25;15.15;;;11.60;;
55537;SDS011;41383;51.418;7.286;2022-07-21T07:37:50;18.70;;;13.32;;
55537;SDS011;41383;51.418;7.286;2022-07-21T07:40:17;15.32;;;12.40;;
55537;SDS011;41383;51.418;7.286;2022-07-21T07:42:44;14.55;;;10.73;;
55537;SDS011;41383;51.418;7.286;2022-07-21T07:45:10;15.45;;;11.55;;
55537;SDS011;41383;51.418;7.286;2022-07-21T07:47:36;14.75;;;12.27;;
55537;SDS011;41383;51.418;7.286;2022-07-21T07:50:02;15.18;;;10.85;;
55537;SDS011;41383;51.418;7.286;2022-07-21T07:52:28;13.75;;;9.68;;
55537;SDS011;41383;51.418;7.286;2022-07-21T07:54:54;16.20;;;10.02;;
55537;SDS011;41383;51.418;7.286;2022-07-21T07:57:19;13.35;;;9.32;;
55537;SDS011;41383;51.418;7.286;2022-07-21T07:59:44;12.02;;;8.05;;
55537;SDS011;41383;51.418;7.286;2022-07-21T08:02:10;12.83;;;8.43;;
55537;SDS011;41383;51.418;7.286;2022-07-21T08:04:35;13.20;;;9.33;;
55537;SDS011;41383;51.418;7.286;2022-07-21T08:07:01;13.18;;;6.70;;
55537;SDS011;41383;51.418;7.286;2022-07-21T08:09:27;11.52;;;8.32;;
55537;SDS011;41383;51.418;7.286;2022-07-21T08:11:53;11.25;;;8.88;;
55537;SDS011;41383;51.418;7.286;2022-07-21T08:14:18;16.38;;;9.43;;
55537;SDS011;41383;51.418;7.286;2022-07-21T08:16:43;13.45;;;8.27;;
55537;SDS011;41383;51.418;7.286;2022-07-21T08:19:10;14.65;;;9.00;;
55537;SDS011;41383;51.418;7.286;2022-07-21T08:21:35;11.23;;;8.32;;
55537;SDS011;41383;51.418;7.286;2022-07-21T08:24:01;11.13;;;8.05;;
55537;SDS011;41383;51.418;7.286;2022-07-21T08:26:26;10.80;;;8.15;;
55537;SDS011;41383;51.418;7.286;2022-07-21T08:28:52;12.65;;;8.52;;
55537;SDS011;41383;51.418;7.286;2022-07-21T08:31:18;11.20;;;7.85;;
55537;SDS011;41383;51.418;7.286;2022-07-21T08:33:44;11.30;;;8.18;;
55537;SDS011;41383;51.418;7.286;2022-07-21T08:36:09;10.65;;;7.90;;
55537;SDS011;41383;51.418;7.286;2022-07-21T08:38:35;11.23;;;7.20;;
55537;SDS011;41383;51.418;7.286;2022-07-21T08:41:00;13.43;;;7.43;;
55537;SDS011;41383;51.418;7.286;2022-07-21T08:43:26;11.80;;;7.75;;
55537;SDS011;41383;51.418;7.286;2022-07-21T08:45:51;12.18;;;6.68;;
55537;SDS011;41383;51.418;7.286;2022-07-21T08:48:20;11.25;;;7.28;;
55537;SDS011;41383;51.418;7.286;2022-07-21T08:50:50;16.17;;;6.65;;
55537;SDS011;41383;51.418;7.286;2022-07-21T08:53:16;10.52;;;7.28;;
55537;SDS011;41383;51.418;7.286;2022-07-21T08:55:42;9.18;;;6.30;;
55537;SDS011;41383;51.418;7.286;2022-07-21T08:58:08;8.97;;;7.00;;
55537;SDS011;41383;51.418;7.286;2022-07-21T09:00:35;9.27;;;6.25;;
55537;SDS011;41383;51.418;7.286;2022-07-21T09:03:18;10.85;;;7.07;;
55537;SDS011;41383;51.418;7.286;2022-07-21T09:08:49;16.00;;;7.20;;
55537;SDS011;41383;51.418;7.286;2022-07-21T09:13:46;10.43;;;6.80;;
55537;SDS011;41383;51.418;7.286;2022-07-21T09:16:31;11.07;;;6.57;;
55537;SDS011;41383;51.418;7.286;2022-07-21T09:19:01;8.45;;;6.60;;
55537;SDS011;41383;51.418;7.286;2022-07-21T09:21:27;11.07;;;8.20;;
55537;SDS011;41383;51.418;7.286;2022-07-21T09:24:09;12.98;;;7.65;;
55537;SDS011;41383;51.418;7.286;2022-07-21T09:27:00;13.82;;;8.35;;
55537;SDS011;41383;51.418;7.286;2022-07-21T09:29:44;9.88;;;6.90;;
55537;SDS011;41383;51.418;7.286;2022-07-21T09:32:11;9.45;;;7.30;;
55537;SDS011;41383;51.418;7.286;2022-07-21T09:34:38;13.93;;;8.85;;
55537;SDS011;41383;51.418;7.286;2022-07-21T09:37:04;9.70;;;7.50;;
55537;SDS011;41383;51.418;7.286;2022-07-21T09:39:41;10.98;;;8.38;;
55537;SDS011;41383;51.418;7.286;2022-07-21T09:42:15;10.90;;;7.63;;
55537;SDS011;41383;51.418;7.286;2022-07-21T09:44:44;13.90;;;7.30;;
55537;SDS011;41383;51.418;7.286;2022-07-21T09:47:13;9.75;;;6.90;;
55537;SDS011;41383;51.418;7.286;2022-07-21T09:49:40;13.57;;;8.82;;
55537;SDS011;41383;51.418;7.286;2022-07-21T09:52:22;15.30;;;8.23;;
55537;SDS011;41383;51.418;7.286;2022-07-21T09:54:59;14.95;;;8.60;;
55537;SDS011;41383;51.418;7.286;2022-07-21T09:57:26;11.68;;;8.07;;
55537;SDS011;41383;51.418;7.286;2022-07-21T09:59:51;11.00;;;7.47;;
55537;SDS011;41383;51.418;7.286;2022-07-21T10:02:20;15.48;;;8.70;;
55537;SDS011;41383;51.418;7.286;2022-07-21T10:04:51;13.98;;;9.90;;
55537;SDS011;41383;51.418;7.286;2022-07-21T10:07:21;11.88;;;8.55;;
55537;SDS011;41383;51.418;7.286;2022-07-21T10:09:47;17.88;;;9.15;;
55537;SDS011;41383;51.418;7.286;2022-07-21T10:12:13;10.70;;;7.70;;
55537;SDS011;41383;51.418;7.286;2022-07-21T10:14:41;15.52;;;7.97;;
55537;SDS011;41383;51.418;7.286;2022-07-21T10:17:07;9.65;;;6.72;;
55537;SDS011;41383;51.418;7.286;2022-07-21T10:19:34;9.82;;;7.10;;
55537;SDS011;41383;51.418;7.286;2022-07-21T10:22:18;10.73;;;7.68;;
55537;SDS011;41383;51.418;7.286;2022-07-21T10:24:48;11.60;;;7.38;;
55537;SDS011;41383;51.418;7.286;2022-07-21T10:27:14;10.35;;;6.95;;
55537;SDS011;41383;51.418;7.286;2022-07-21T10:29:59;18.80;;;8.23;;
55537;SDS011;41383;51.418;7.286;2022-07-21T10:32:27;15.77;;;7.50;;
55537;SDS011;41383;51.418;7.286;2022-07-21T10:34:54;12.02;;;6.50;;
55537;SDS011;41383;51.418;7.286;2022-07-21T10:40:04;9.27;;;6.57;;
55537;SDS011;41383;51.418;7.286;2022-07-21T10:42:44;12.10;;;6.88;;
55537;SDS011;41383;51.418;7.286;2022-07-21T10:45:29;13.23;;;7.82;;
55537;SDS011;41383;51.418;7.286;2022-07-21T10:47:58;9.85;;;7.53;;
55537;SDS011;41383;51.418;7.286;2022-07-21T10:52:58;10.93;;;7.88;;
55537;SDS011;41383;51.418;7.286;2022-07-21T10:55:25;10.18;;;6.80;;
55537;SDS011;41383;51.418;7.286;2022-07-21T11:00:37;15.27;;;7.82;;
55537;SDS011;41383;51.418;7.286;2022-07-21T11:03:04;13.13;;;6.50;;
55537;SDS011;41383;51.418;7.286;2022-07-21T11:08:39;9.63;;;6.35;;
55537;SDS011;41383;51.418;7.286;2022-07-21T11:11:10;12.27;;;7.43;;
55537;SDS011;41383;51.418;7.286;2022-07-21T11:16:57;11.05;;;6.97;;
55537;SDS011;41383;51.418;7.286;2022-07-21T11:22:06;15.45;;;7.95;;
55537;SDS011;41383;51.418;7.286;2022-07-21T11:24:48;12.05;;;7.63;;
55537;SDS011;41383;51.418;7.286;2022-07-21T11:27:19;12.60;;;8.98;;
55537;SDS011;41383;51.418;7.286;2022-07-21T11:29:47;11.07;;;7.43;;
55537;SDS011;41383;51.418;7.286;2022-07-21T11:32:14;10.93;;;7.32;;
55537;SDS011;41383;51.418;7.286;2022-07-21T11:34:42;12.05;;;8.05;;
55537;SDS011;41383;51.418;7.286;2022-07-21T11:37:14;14.20;;;7.63;;
55537;SDS011;41383;51.418;7.286;2022-07-21T11:39:44;13.13;;;6.78;;
55537;SDS011;41383;51.418;7.286;2022-07-21T11:42:13;12.32;;;7.18;;
55537;SDS011;41383;51.418;7.286;2022-07-21T11:44:40;15.55;;;8.32;;
55537;SDS011;41383;51.418;7.286;2022-07-21T11:47:09;13.10;;;8.35;;
55537;SDS011;41383;51.418;7.286;2022-07-21T11:49:40;16.30;;;9.23;;
55537;SDS011;41383;51.418;7.286;2022-07-21T11:52:08;12.23;;;9.70;;
55537;SDS011;41383;51.418;7.286;2022-07-21T11:54:37;16.10;;;9.50;;
55537;SDS011;41383;51.418;7.286;2022-07-21T11:57:10;11.35;;;8.60;;
55537;SDS011;41383;51.418;7.286;2022-07-21T11:59:36;15.50;;;8.88;;
55537;SDS011;41383;51.418;7.286;2022-07-21T12:02:10;14.85;;;8.70;;
55537;SDS011;41383;51.418;7.286;2022-07-21T12:04:37;15.38;;;9.02;;
55537;SDS011;41383;51.418;7.286;2022-07-21T12:07:04;15.90;;;8.90;;
55537;SDS011;41383;51.418;7.286;2022-07-21T12:09:32;17.42;;;9.07;;
55537;SDS011;41383;51.418;7.286;2022-07-21T12:11:58;14.50;;;9.60;;
55537;SDS011;41383;51.418;7.286;2022-07-21T12:14:42;14.55;;;10.27;;
55537;SDS011;41383;51.418;7.286;2022-07-21T12:17:10;12.77;;;8.90;;
55537;SDS011;41383;51.418;7.286;2022-07-21T12:19:35;12.70;;;8.60;;
55537;SDS011;41383;51.418;7.286;2022-07-21T12:22:02;16.30;;;8.38;;
55537;SDS011;41383;51.418;7.286;2022-07-21T12:27:12;12.32;;;7.25;;
55537;SDS011;41383;51.418;7.286;2022-07-21T12:29:38;11.27;;;7.80;;
55537;SDS011;41383;51.418;7.286;2022-07-21T12:32:04;11.27;;;6.93;;
55537;SDS011;41383;51.418;7.286;2022-07-21T12:34:29;10.25;;;5.75;;
55537;SDS011;41383;51.418;7.286;2022-07-21T12:36:55;8.88;;;6.40;;
55537;SDS011;41383;51.418;7.286;2022-07-21T12:39:22;10.05;;;5.10;;
55537;SDS011;41383;51.418;7.286;2022-07-21T12:44:56;8.38;;;5.10;;
55537;SDS011;41383;51.418;7.286;2022-07-21T12:47:22;7.45;;;4.50;;
55537;SDS011;41383;51.418;7.286;2022-07-21T12:50:02;8.35;;;5.20;;
55537;SDS011;41383;51.418;7.286;2022-07-21T12:52:29;9.95;;;5.82;;
55537;SDS011;41383;51.418;7.286;2022-07-21T12:54:55;8.50;;;6.22;;
55537;SDS011;41383;51.418;7.286;2022-07-21T12:57:24;11.25;;;6.13;;
55537;SDS011;41383;51.418;7.286;2022-07-21T12:59:51;8.88;;;5.40;;
55537;SDS011;41383;51.418;7.286;2022-07-21T13:02:17;8.57;;;5.60;;
55537;SDS011;41383;51.418;7.286;2022-07-21T13:04:42;7.37;;;4.93;;
55537;SDS011;41383;51.418;7.286;2022-07-21T13:07:07;5.93;;;4.05;;
55537;SDS011;41383;51.418;7.286;2022-07-21T13:09:33;7.82;;;5.00;;
55537;SDS011;41383;51.418;7.286;2022-07-21T13:11:58;12.77;;;6.27;;
55537;SDS011;41383;51.418;7.286;2022-07-21T13:14:23;8.65;;;6.32;;
55537;SDS011;41383;51.418;7.286;2022-07-21T13:16:48;8.95;;;5.75;;
55537;SDS011;41383;51.418;7.286;2022-07-21T13:19:14;9.65;;;5.85;;
55537;SDS011;41383;51.418;7.286;2022-07-21T13:21:39;9.57;;;5.15;;
55537;SDS011;41383;51.418;7.286;2022-07-21T13:24:04;7.53;;;5.40;;
55537;SDS011;41383;51.418;7.286;2022-07-21T13:26:30;10.77;;;6.40;;
55537;SDS011;41383;51.418;7.286;2022-07-21T13:28:56;10.07;;;6.68;;
55537;SDS011;41383;51.418;7.286;2022-07-21T13:31:21;9.60;;;5.63;;
55537;SDS011;41383;51.418;7.286;2022-07-21T13:33:47;6.72;;;3.60;;
55537;SDS011;41383;51.418;7.286;2022-07-21T13:36:12;6.57;;;2.97;;
55537;SDS011;41383;51.418;7.286;2022-07-21T13:38:38;6.03;;;3.20;;
55537;SDS011;41383;51.418;7.286;2022-07-21T13:41:03;5.78;;;3.25;;
55537;SDS011;41383;51.418;7.286;2022-07-21T13:43:29;5.72;;;2.25;;
55537;SDS011;41383;51.418;7.286;2022-07-21T13:45:54;4.57;;;2.37;;
55537;SDS011;41383;51.418;7.286;2022-07-21T13:48:20;11.43;;;4.57;;
55537;SDS011;41383;51.418;7.286;2022-07-21T13:50:45;4.07;;;2.00;;
55537;SDS011;41383;51.418;7.286;2022-07-21T13:53:10;6.15;;;2.65;;
55537;SDS011;41383;51.418;7.286;2022-07-21T13:55:36;5.03;;;2.58;;
55537;SDS011;41383;51.418;7.286;2022-07-21T13:58:01;8.90;;;2.53;;
55537;SDS011;41383;51.418;7.286;2022-07-21T14:00:26;3.33;;;2.28;;
55537;SDS011;41383;51.418;7.286;2022-07-21T14:02:52;6.88;;;3.10;;
55537;SDS011;41383;51.418;7.286;2022-07-21T14:05:17;7.47;;;3.20;;
55537;SDS011;41383;51.418;7.286;2022-07-21T14:07:42;7.43;;;3.63;;
55537;SDS011;41383;51.418;7.286;2022-07-21T14:10:08;9.63;;;3.00;;
55537;SDS011;41383;51.418;7.286;2022-07-21T14:12:33;9.18;;;4.65;;
55537;SDS011;41383;51.418;7.286;2022-07-21T14:14:59;6.37;;;3.90;;
55537;SDS011;41383;51.418;7.286;2022-07-21T14:17:24;7.03;;;4.67;;
55537;SDS011;41383;51.418;7.286;2022-07-21T14:19:49;9.07;;;5.20;;
55537;SDS011;41383;51.418;7.286;2022-07-21T14:22:15;9.05;;;5.93;;
55537;SDS011;41383;51.418;7.286;2022-07-21T14:24:42;11.98;;;6.88;;
55537;SDS011;41383;51.418;7.286;2022-07-21T14:27:27;13.07;;;7.38;;
55537;SDS011;41383;51.418;7.286;2022-07-21T14:29:52;9.95;;;6.72;;
55537;SDS011;41383;51.418;7.286;2022-07-21T14:32:18;10.48;;;6.90;;
55537;SDS011;41383;51.418;7.286;2022-07-21T14:34:47;11.77;;;7.70;;
55537;SDS011;41383;51.418;7.286;2022-07-21T14:37:16;11.52;;;8.02;;
55537;SDS011;41383;51.418;7.286;2022-07-21T14:39:43;12.57;;;8.13;;
55537;SDS011;41383;51.418;7.286;2022-07-21T14:42:09;11.68;;;8.50;;
55537;SDS011;41383;51.418;7.286;2022-07-21T14:44:34;9.68;;;6.88;;
55537;SDS011;41383;51.418;7.286;2022-07-21T14:46:59;11.23;;;6.30;;
55537;SDS011;41383;51.418;7.286;2022-07-21T14:49:25;8.20;;;6.10;;
55537;SDS011;41383;51.418;7.286;2022-07-21T14:51:50;7.77;;;4.97;;
55537;SDS011;41383;51.418;7.286;2022-07-21T14:54:15;9.53;;;4.73;;
55537;SDS011;41383;51.418;7.286;2022-07-21T14:56:40;7.00;;;4.00;;
55537;SDS011;41383;51.418;7.286;2022-07-21T14:59:06;6.27;;;3.97;;